Time;durP1;ratioP1;P1;durP2;ratioP2;P2;SDS_P1;SDS_P2;PMS_P1;PMS_P2;Temp;Humidity;BMP_temperature;BMP_pressure;BME280_temperature;BME280_humidity;BME280_pressure;Samples;Min_cycle;Max_cycle;Signal;HPM_P1;HPM_P2
2022/04/22 00:00:51;;;;;;;7.97;4.65;;;;;;;3.43;84.00;96237.25;5044242;28;20536;-64
2022/04/22 00:03:18;;;;;;;8.95;4.78;;;;;;;3.46;83.95;96236.78;5058184;28;20064;-63
2022/04/22 00:05:45;;;;;;;8.70;5.50;;;;;;;3.38;84.16;96239.81;5063040;28;20045;-63
2022/04/22 00:08:11;;;;;;;8.98;5.50;;;;;;;3.59;83.54;96242.94;5065583;28;20051;-63
2022/04/22 00:11:29;;;;;;;8.63;5.20;;;;;;;3.31;83.68;96239.16;5057568;28;20040;-64
2022/04/22 00:13:28;;;;;;;12.55;7.05;;;;;;;3.44;84.34;96236.22;5056397;28;20045;-63
2022/04/22 00:15:54;;;;;;;10.00;5.35;;;;;;;3.31;84.14;96237.25;5049707;28;20622;-63
2022/04/22 00:18:22;;;;;;;8.45;5.28;;;;;;;3.29;84.73;96231.34;5057478;28;20041;-63
2022/04/22 00:20:48;;;;;;;8.25;5.35;;;;;;;3.36;84.92;96236.56;5059804;28;20056;-63
2022/04/22 00:23:15;;;;;;;8.75;5.35;;;;;;;3.32;84.77;96230.06;5057777;28;20105;-62
2022/04/22 00:25:41;;;;;;;9.18;5.38;;;;;;;3.31;84.62;96223.88;5068532;28;20052;-63
2022/04/22 00:28:08;;;;;;;9.02;5.20;;;;;;;3.03;85.33;96233.44;5054057;28;20385;-63
2022/04/22 00:30:34;;;;;;;9.57;5.85;;;;;;;3.01;85.53;96227.50;5047545;28;20052;-63
2022/04/22 00:33:01;;;;;;;10.48;6.15;;;;;;;2.89;85.46;96214.13;5059569;28;20747;-64
2022/04/22 00:35:27;;;;;;;11.80;6.32;;;;;;;2.91;86.61;96225.38;5048320;28;20045;-63
2022/04/22 00:37:54;;;;;;;10.10;6.13;;;;;;;2.89;86.02;96216.78;5048522;28;20048;-63
2022/04/22 00:40:20;;;;;;;11.80;6.38;;;;;;;2.95;86.34;96220.41;5048929;28;20041;-63
2022/04/22 00:42:47;;;;;;;9.95;6.75;;;;;;;2.98;86.03;96225.28;5049999;28;20049;-63
2022/04/22 00:45:16;;;;;;;8.55;6.00;;;;;;;2.96;85.93;96219.34;5068556;28;20090;-63
2022/04/22 00:47:42;;;;;;;9.30;5.28;;;;;;;3.02;84.40;96222.97;5058033;28;20048;-63
2022/04/22 00:50:09;;;;;;;9.77;6.38;;;;;;;2.88;85.75;96217.84;5079935;28;20039;-63
2022/04/22 00:52:35;;;;;;;10.88;6.05;;;;;;;2.81;85.98;96209.94;5067528;28;20052;-63
2022/04/22 00:55:02;;;;;;;11.15;6.40;;;;;;;2.75;86.29;96218.03;5051940;28;20420;-63
2022/04/22 00:57:31;;;;;;;11.68;6.30;;;;;;;2.77;87.10;96214.13;5051089;28;20547;-63
2022/04/22 00:59:58;;;;;;;13.00;6.50;;;;;;;2.87;86.02;96208.19;5067100;28;20045;-63
2022/04/22 01:02:25;;;;;;;10.60;5.97;;;;;;;2.77;85.84;96208.78;5067687;28;20044;-63
2022/04/22 01:10:22;;;;;;;10.57;6.60;;;;;;;2.63;87.26;96194.81;5061822;28;20428;-63
2022/04/22 01:12:49;;;;;;;10.60;6.93;;;;;;;2.95;85.71;96194.47;5053255;28;20048;-63
2022/04/22 01:15:16;;;;;;;10.98;6.28;;;;;;;2.72;85.14;96190.75;5061806;28;20045;-63
2022/04/22 01:17:44;;;;;;;11.90;6.40;;;;;;;2.65;86.55;96190.03;5053920;28;20054;-63
2022/04/22 01:20:11;;;;;;;10.93;5.88;;;;;;;2.55;85.88;96190.59;5051717;28;20040;-63
2022/04/22 01:22:38;;;;;;;8.63;5.85;;;;;;;2.42;86.45;96180.94;5059016;28;20045;-64
2022/04/22 01:25:05;;;;;;;9.98;6.47;;;;;;;2.43;87.57;96179.88;5046901;28;20520;-63
2022/04/22 01:27:32;;;;;;;10.68;5.95;;;;;;;2.59;87.41;96173.03;5047424;28;20451;-64
2022/04/22 01:30:06;;;;;;;14.38;6.00;;;;;;;2.38;86.14;96166.41;5055593;28;20037;-62
2022/04/22 01:32:32;;;;;;;10.07;6.18;;;;;;;2.30;86.72;96170.22;5058125;28;20106;-64
2022/04/22 01:34:59;;;;;;;13.23;6.28;;;;;;;2.31;88.33;96163.00;5051624;28;20048;-63
2022/04/22 01:37:25;;;;;;;9.65;6.57;;;;;;;2.31;88.20;96163.84;5046979;28;20048;-63
2022/04/22 01:39:52;;;;;;;14.25;7.03;;;;;;;2.35;86.81;96164.19;5046749;28;20045;-63
2022/04/22 01:42:19;;;;;;;13.00;6.90;;;;;;;2.39;88.33;96157.34;5048450;28;20045;-63
2022/04/22 01:44:45;;;;;;;11.52;6.47;;;;;;;2.35;87.60;96161.50;5061655;28;20052;-63
2022/04/22 01:47:12;;;;;;;13.90;7.03;;;;;;;2.35;88.16;96153.50;5061679;28;20690;-63
2022/04/22 01:49:39;;;;;;;11.18;6.60;;;;;;;2.28;87.86;96158.16;5073979;28;20047;-63
2022/04/22 01:52:07;;;;;;;10.25;6.82;;;;;;;2.32;88.66;96152.09;5081057;28;20049;-63
2022/04/22 01:54:33;;;;;;;12.60;7.38;;;;;;;2.32;88.81;96145.97;5054608;28;20402;-63
2022/04/22 01:57:01;;;;;;;10.38;6.85;;;;;;;2.20;88.15;96148.59;5055998;28;20048;-63
2022/04/22 01:59:27;;;;;;;12.18;7.97;;;;;;;2.30;89.66;96143.50;5059744;28;20068;-63
2022/04/22 02:01:54;;;;;;;11.60;7.53;;;;;;;2.26;87.99;96139.66;5055574;28;20079;-63
2022/04/22 02:04:21;;;;;;;13.05;7.50;;;;;;;2.32;87.81;96137.94;5066960;28;20058;-63
2022/04/22 02:06:47;;;;;;;12.75;6.75;;;;;;;1.95;88.31;96130.88;5065919;28;20044;-63
2022/04/22 02:09:14;;;;;;;13.40;6.82;;;;;;;1.89;89.15;96131.78;5049484;28;20033;-63
2022/04/22 02:11:41;;;;;;;15.45;7.63;;;;;;;1.93;89.43;96131.13;5050815;28;20508;-63
2022/04/22 02:14:08;;;;;;;16.17;7.10;;;;;;;1.97;89.14;96126.13;5058627;28;20036;-63
2022/04/22 02:16:35;;;;;;;13.98;8.40;;;;;;;1.92;90.32;96126.78;5046642;28;20041;-63
2022/04/22 02:19:02;;;;;;;14.77;8.02;;;;;;;1.94;89.88;96126.56;5045302;28;20115;-63
2022/04/22 02:21:28;;;;;;;14.77;9.40;;;;;;;1.89;90.30;96121.94;5047390;28;20052;-63
2022/04/22 02:23:55;;;;;;;12.30;8.32;;;;;;;1.83;89.39;96120.16;5050030;28;20470;-63
2022/04/22 02:26:21;;;;;;;17.08;10.30;;;;;;;2.06;89.84;96122.09;5047119;28;20055;-64
2022/04/22 02:28:48;;;;;;;13.93;9.02;;;;;;;2.02;90.48;96122.75;5054683;28;20045;-63
2022/04/22 02:31:14;;;;;;;16.58;8.75;;;;;;;2.01;90.35;96118.47;5045484;28;20098;-63
2022/04/22 02:33:42;;;;;;;13.52;9.68;;;;;;;2.01;90.51;96123.81;5063064;28;20079;-63
2022/04/22 02:36:10;;;;;;;17.48;9.68;;;;;;;2.12;90.24;96119.53;5045897;28;20056;-63
2022/04/22 02:38:37;;;;;;;14.70;8.38;;;;;;;2.04;88.89;96107.34;5065398;28;20044;-63
2022/04/22 02:46:34;;;;;;;17.85;9.65;;;;;;;1.70;92.47;96097.16;5065218;28;20047;-63
2022/04/22 02:49:01;;;;;;;15.30;8.18;;;;;;;1.56;90.28;96102.63;5052550;28;20353;-63
2022/04/22 02:51:28;;;;;;;19.13;10.10;;;;;;;1.73;90.78;96103.88;5046562;28;20056;-63
2022/04/22 02:53:55;;;;;;;16.05;10.00;;;;;;;1.63;91.41;96099.91;5061498;28;20052;-63
2022/04/22 02:56:24;;;;;;;16.25;9.98;;;;;;;1.80;91.47;96094.72;5065760;28;20135;-63
2022/04/22 02:58:52;;;;;;;18.05;10.23;;;;;;;1.72;90.69;96091.56;5060095;28;20053;-64
2022/04/22 03:01:18;;;;;;;20.73;10.77;;;;;;;1.60;90.64;96091.53;5046935;28;20471;-64
2022/04/22 03:03:47;;;;;;;17.45;9.88;;;;;;;1.50;90.84;96090.22;5053971;28;20043;-64
2022/04/22 03:06:13;;;;;;;15.85;9.85;;;;;;;1.58;92.28;96089.06;5048280;28;20041;-64
2022/04/22 03:08:40;;;;;;;20.77;11.18;;;;;;;1.78;91.23;96083.50;5046017;28;20045;-63
2022/04/22 03:11:07;;;;;;;15.77;9.73;;;;;;;1.67;90.25;96077.03;5046521;28;20593;-63
2022/04/22 03:13:33;;;;;;;15.68;9.63;;;;;;;1.34;89.69;96083.66;5048909;28;20048;-64
2022/04/22 03:16:02;;;;;;;17.10;9.40;;;;;;;1.36;90.03;96078.91;5045707;28;20060;-64
2022/04/22 03:18:29;;;;;;;15.77;10.30;;;;;;;1.59;90.42;96074.72;5046546;28;20102;-64
2022/04/22 03:20:56;;;;;;;16.60;10.52;;;;;;;1.47;90.49;96068.53;5045232;28;20500;-63
2022/04/22 03:23:23;;;;;;;16.73;9.50;;;;;;;1.34;90.91;96075.66;5060642;28;20048;-63
2022/04/22 03:25:49;;;;;;;19.85;11.20;;;;;;;1.31;92.59;96073.44;5046104;28;20091;-64
2022/04/22 03:28:16;;;;;;;24.33;12.15;;;;;;;1.27;92.48;96072.25;5045847;28;20044;-64
2022/04/22 03:30:42;;;;;;;21.58;11.68;;;;;;;1.33;93.48;96067.88;5044923;28;20033;-63
2022/04/22 03:33:09;;;;;;;22.27;11.85;;;;;;;1.47;92.91;96071.19;5061147;28;20048;-64
2022/04/22 03:35:36;;;;;;;24.83;11.95;;;;;;;1.52;93.65;96076.66;5045197;28;20041;-64
2022/04/22 03:38:02;;;;;;;18.15;10.77;;;;;;;1.40;91.05;96071.28;5045161;28;20044;-64
2022/04/22 03:40:29;;;;;;;23.25;12.98;;;;;;;1.39;93.33;96073.13;5046133;28;20128;-63
2022/04/22 03:42:55;;;;;;;24.65;13.40;;;;;;;1.42;93.35;96077.19;5045369;28;20068;-64
2022/04/22 03:45:22;;;;;;;23.25;11.98;;;;;;;1.25;91.74;96071.69;5065515;28;20769;-64
2022/04/22 03:47:49;;;;;;;21.38;12.07;;;;;;;1.21;91.72;96070.50;5065039;28;20087;-64
2022/04/22 03:50:15;;;;;;;19.67;11.50;;;;;;;1.14;93.26;96068.72;5057142;28;20033;-64
2022/04/22 03:52:42;;;;;;;21.67;13.35;;;;;;;1.40;94.39;96077.41;5063218;28;20045;-64
2022/04/22 03:55:09;;;;;;;22.42;12.75;;;;;;;1.38;93.22;96079.50;5065001;28;20048;-64
2022/04/22 04:00:21;;;;;;;23.73;14.75;;;;;;;1.31;93.47;96076.09;5045260;28;20460;-64
2022/04/22 04:02:47;;;;;;;26.08;14.18;;;;;;;1.38;94.32;96068.84;5064325;28;20635;-64
2022/04/22 04:05:15;;;;;;;26.73;12.73;;;;;;;1.30;93.09;96061.16;5053285;28;20393;-64
2022/04/22 04:07:42;;;;;;;26.50;14.02;;;;;;;1.36;93.37;96062.91;5044046;28;20055;-64
2022/04/22 04:15:59;;;;;;;22.95;12.70;;;;;;;1.20;93.68;96071.50;5043630;28;20091;-64
2022/04/22 04:18:31;;;;;;;25.67;13.35;;;;;;;1.33;93.43;96068.69;5042615;28;20201;-64
2022/04/22 04:23:45;;;;;;;27.40;13.63;;;;;;;1.43;93.07;96062.81;5054368;28;20052;-63
2022/04/22 04:26:14;;;;;;;25.40;13.27;;;;;;;1.32;91.91;96069.72;5055228;28;20098;-63
2022/04/22 04:28:43;;;;;;;23.52;14.45;;;;;;;1.16;92.59;96077.31;5066403;28;20055;-63
2022/04/22 04:31:11;;;;;;;24.42;13.93;;;;;;;1.20;93.60;96080.34;5048193;28;20040;-63
2022/04/22 04:33:38;;;;;;;29.52;15.57;;;;;;;1.39;93.68;96073.13;5062136;28;20045;-63
2022/04/22 04:36:05;;;;;;;34.05;17.88;;;;;;;1.51;94.39;96070.50;5055983;28;20055;-64
2022/04/22 04:38:32;;;;;;;29.50;16.58;;;;;;;1.35;93.06;96079.94;5070695;28;20494;-64
2022/04/22 04:40:59;;;;;;;26.25;14.50;;;;;;;1.38;93.20;96066.16;5051228;28;20037;-63
2022/04/22 04:43:26;;;;;;;34.38;17.27;;;;;;;1.43;93.29;96073.47;5051341;28;20878;-64
2022/04/22 04:45:53;;;;;;;30.95;15.07;;;;;;;1.31;92.96;96076.09;5047408;28;20056;-63
2022/04/22 04:48:20;;;;;;;28.13;15.57;;;;;;;1.39;94.02;96080.28;5058236;28;20063;-64
2022/04/22 04:50:47;;;;;;;34.97;18.27;;;;;;;1.33;93.95;96075.88;5077405;28;20093;-64
2022/04/22 04:53:13;;;;;;;31.38;16.13;;;;;;;1.34;93.09;96067.66;5049376;28;20037;-63
2022/04/22 04:55:40;;;;;;;37.88;17.98;;;;;;;1.52;94.96;96079.31;5048468;28;20146;-64
2022/04/22 04:58:07;;;;;;;28.90;16.65;;;;;;;1.59;93.69;96071.22;5041962;28;20045;-64
2022/04/22 05:00:34;;;;;;;36.47;19.70;;;;;;;1.66;94.31;96079.97;5047699;28;20086;-64
2022/04/22 05:03:01;;;;;;;31.80;17.63;;;;;;;1.61;93.31;96079.81;5056467;28;20041;-63
2022/04/22 05:05:29;;;;;;;37.72;18.60;;;;;;;1.76;94.74;96074.06;5059218;28;20044;-64
2022/04/22 05:07:57;;;;;;;42.65;19.40;;;;;;;1.93;94.82;96082.25;5062547;28;20055;-63
2022/04/22 05:10:26;;;;;;;35.45;18.33;;;;;;;2.03;93.36;96079.81;5050429;28;20041;-64
2022/04/22 05:12:53;;;;;;;37.50;19.23;;;;;;;1.85;93.14;96088.72;5062312;28;20052;-64
2022/04/22 05:15:24;;;;;;;32.17;16.85;;;;;;;1.89;94.35;96076.56;5049351;28;20052;-64
2022/04/22 05:17:53;;;;;;;41.40;19.75;;;;;;;2.14;95.34;96077.41;5045534;28;20224;-63
2022/04/22 05:20:20;;;;;;;34.30;19.20;;;;;;;2.30;93.37;96074.06;5047100;28;20315;-64
2022/04/22 05:22:47;;;;;;;40.28;18.33;;;;;;;2.42;93.78;96066.06;5060953;28;20059;-64
2022/04/22 05:25:15;;;;;;;34.95;18.33;;;;;;;2.53;91.83;96063.59;5056205;28;20797;-64
2022/04/22 05:27:42;;;;;;;35.33;18.13;;;;;;;2.33;92.45;96057.56;5054587;28;20682;-64
2022/04/22 05:32:55;;;;;;;34.33;19.65;;;;;;;2.47;93.54;96066.16;5057523;28;20340;-64
2022/04/22 05:35:26;;;;;;;37.53;20.15;;;;;;;2.66;93.65;96071.41;5059236;28;20053;-64
2022/04/22 05:37:58;;;;;;;40.53;19.33;;;;;;;2.97;94.08;96060.53;5055003;28;20057;-64
2022/04/22 05:40:30;;;;;;;37.28;18.27;;;;;;;3.20;94.17;96065.00;5046536;28;20037;-64
2022/04/22 05:42:58;;;;;;;35.97;20.27;;;;;;;3.35;91.86;96064.50;5043993;28;20416;-64
2022/04/22 05:45:26;;;;;;;34.47;19.10;;;;;;;3.53;91.91;96068.03;5054078;28;20381;-63
2022/04/22 05:47:53;;;;;;;31.45;18.77;;;;;;;3.73;91.91;96064.13;5063203;28;20059;-64
2022/04/22 05:50:21;;;;;;;36.35;19.25;;;;;;;3.92;91.79;96062.06;5062822;28;20066;-64
2022/04/22 05:52:48;;;;;;;36.92;20.50;;;;;;;4.19;91.26;96069.47;5064565;28;20050;-64
2022/04/22 05:55:18;;;;;;;40.00;19.75;;;;;;;4.38;90.86;96069.19;5065831;28;20036;-64
2022/04/22 05:57:46;;;;;;;38.53;19.63;;;;;;;4.53;90.03;96064.09;5057146;28;20090;-64
2022/04/22 06:00:15;;;;;;;39.55;21.38;;;;;;;4.68;89.22;96060.00;5061709;28;20873;-64
2022/04/22 06:02:43;;;;;;;36.63;20.25;;;;;;;4.82;88.57;96061.28;5052843;28;20037;-63
2022/04/22 06:05:12;;;;;;;32.83;18.08;;;;;;;4.96;88.07;96058.22;5054348;28;20055;-64
2022/04/22 06:07:39;;;;;;;36.15;21.23;;;;;;;5.05;87.46;96058.63;5050888;28;20044;-63
2022/04/22 06:12:53;;;;;;;30.40;17.63;;;;;;;5.24;86.51;96059.13;5047837;28;20115;-63
2022/04/22 06:15:20;;;;;;;33.22;18.20;;;;;;;5.33;85.89;96057.63;5060551;28;20490;-63
2022/04/22 06:17:47;;;;;;;30.40;17.02;;;;;;;5.44;85.88;96041.63;5054847;28;20052;-64
2022/04/22 06:20:14;;;;;;;27.02;16.63;;;;;;;5.55;85.22;96050.59;5063397;28;20721;-64
2022/04/22 06:22:41;;;;;;;31.15;18.20;;;;;;;5.63;84.55;96054.72;5065360;28;20070;-64
2022/04/22 06:25:11;;;;;;;30.08;17.85;;;;;;;5.73;84.27;96052.13;5048452;28;20049;-63
2022/04/22 06:27:41;;;;;;;28.60;16.88;;;;;;;5.74;83.54;96056.44;5046167;28;20045;-64
2022/04/22 06:30:15;;;;;;;29.10;16.80;;;;;;;5.79;83.14;96051.09;5046685;28;20115;-64
2022/04/22 06:32:47;;;;;;;27.33;17.33;;;;;;;5.86;83.11;96050.91;5059123;28;20078;-64
2022/04/22 06:35:14;;;;;;;;;;;;;;;6.00;82.43;96054.00;5060344;28;20056;-64
2022/04/22 06:37:44;;;;;;;27.15;15.93;;;;;;;6.05;82.07;96051.38;5046553;28;19920;-64
2022/04/22 06:45:48;;;;;;;26.65;16.55;;;;;;;6.34;80.58;96051.06;5046524;28;20094;-64
2022/04/22 06:48:21;;;;;;;25.05;16.30;;;;;;;6.47;79.96;96049.84;5057863;28;20102;-63
2022/04/22 06:51:08;;;;;;;29.27;15.55;;;;;;;6.48;79.97;96039.88;5042825;28;20049;-64
2022/04/22 06:53:36;;;;;;;26.70;16.55;;;;;;;6.60;79.70;96043.19;5043968;28;20508;-63
2022/04/22 06:56:06;;;;;;;26.92;17.10;;;;;;;6.66;79.29;96043.25;5043016;28;20044;-64
2022/04/22 06:58:37;;;;;;;32.75;16.38;;;;;;;6.61;79.44;96034.06;5057255;28;20080;-63
2022/04/22 07:01:05;;;;;;;28.77;15.15;;;;;;;6.72;78.63;96034.94;5043514;28;20739;-64
2022/04/22 07:03:51;;;;;;;26.35;15.95;;;;;;;6.83;77.39;96033.13;5044914;28;20123;-63
2022/04/22 07:06:18;;;;;;;25.17;15.77;;;;;;;6.73;77.66;96035.72;5050077;28;20049;-63
2022/04/22 07:08:46;;;;;;;26.83;16.58;;;;;;;6.72;77.96;96031.44;5059898;28;20570;-64
2022/04/22 07:11:21;;;;;;;26.25;16.23;;;;;;;6.81;77.72;96037.94;5073759;28;20044;-63
2022/04/22 07:13:48;;;;;;;25.35;15.15;;;;;;;6.88;76.69;96027.75;5077116;28;20055;-64
2022/04/22 07:16:17;;;;;;;25.77;15.68;;;;;;;6.85;77.60;96025.56;5062936;28;20048;-64
2022/04/22 07:18:45;;;;;;;27.20;15.85;;;;;;;6.97;77.20;96033.44;5050674;28;20064;-64
2022/04/22 07:21:12;;;;;;;24.77;15.55;;;;;;;7.11;76.29;96024.91;5044076;28;20047;-64
2022/04/22 07:23:38;;;;;;;25.27;15.15;;;;;;;7.25;75.70;96025.19;5051009;28;20459;-64
2022/04/22 07:26:07;;;;;;;25.58;14.68;;;;;;;7.36;75.86;96024.19;5045590;28;20057;-64
2022/04/22 07:28:34;;;;;;;25.73;16.27;;;;;;;7.64;74.28;96024.81;5048792;28;20045;-65
2022/04/22 07:31:01;;;;;;;27.17;16.38;;;;;;;7.71;74.96;96023.72;5053770;28;20039;-63
2022/04/22 07:33:31;;;;;;;27.27;15.40;;;;;;;8.00;73.09;96025.91;5056103;28;20056;-64
2022/04/22 07:35:58;;;;;;;29.75;16.88;;;;;;;8.18;72.94;96028.06;5042688;28;20048;-64
2022/04/22 07:38:25;;;;;;;24.23;16.00;;;;;;;8.02;72.59;96027.28;5059149;28;20091;-64
2022/04/22 07:40:52;;;;;;;23.60;14.88;;;;;;;8.47;70.19;96029.41;5057044;28;20044;-63
2022/04/22 07:48:56;;;;;;;25.75;15.55;;;;;;;8.90;69.87;96021.00;5051134;28;20121;-64
2022/04/22 07:51:26;;;;;;;23.27;14.07;;;;;;;8.83;70.09;96020.47;5055642;28;20044;-64
2022/04/22 07:53:55;;;;;;;23.30;15.63;;;;;;;9.16;68.99;96022.78;5054804;28;20530;-64
2022/04/22 07:56:23;;;;;;;24.33;15.75;;;;;;;9.02;69.01;96017.16;5061898;28;20044;-64
2022/04/22 07:58:50;;;;;;;23.95;15.68;;;;;;;9.40;68.06;96016.75;5062301;28;20048;-64
2022/04/22 08:01:17;;;;;;;24.30;15.18;;;;;;;9.58;68.25;96021.50;5057653;28;20040;-64
2022/04/22 08:03:43;;;;;;;24.52;16.58;;;;;;;9.06;68.59;96016.34;5063818;28;20047;-64
2022/04/22 08:06:11;;;;;;;26.58;16.42;;;;;;;8.68;69.84;96027.53;5043001;28;20048;-64
2022/04/22 08:08:37;;;;;;;21.88;14.70;;;;;;;8.76;69.51;96019.94;5043028;28;20048;-64
2022/04/22 08:11:04;;;;;;;28.27;15.50;;;;;;;8.51;69.84;96019.69;5055056;28;20037;-64
2022/04/22 08:13:32;;;;;;;25.85;16.15;;;;;;;8.59;70.57;96021.06;5055112;28;20098;-62
2022/04/22 08:15:59;;;;;;;24.67;15.65;;;;;;;8.59;70.49;96021.06;5042621;28;20059;-63
2022/04/22 08:18:26;;;;;;;23.77;14.88;;;;;;;8.69;69.89;96018.34;5044274;28;20500;-63
2022/04/22 08:20:52;;;;;;;24.25;15.57;;;;;;;8.80;68.97;96013.72;5048115;28;20045;-63
2022/04/22 08:23:21;;;;;;;22.48;15.30;;;;;;;8.90;69.80;96017.47;5054533;28;20048;-64
2022/04/22 08:25:47;;;;;;;25.08;14.85;;;;;;;9.00;68.89;96013.94;5062187;28;20575;-63
2022/04/22 08:28:14;;;;;;;21.88;14.52;;;;;;;9.15;68.43;96018.47;5073401;28;20098;-62
2022/04/22 08:30:41;;;;;;;23.30;14.95;;;;;;;9.20;68.78;96011.19;5040574;28;20056;-63
2022/04/22 08:33:07;;;;;;;21.05;14.10;;;;;;;9.43;69.57;96014.31;5044396;28;20115;-63
2022/04/22 08:35:35;;;;;;;24.85;15.77;;;;;;;9.42;68.42;96009.16;5043451;28;20057;-63
2022/04/22 08:38:03;;;;;;;23.05;15.80;;;;;;;9.56;68.21;96004.78;5049061;28;20052;-63
2022/04/22 08:40:31;;;;;;;23.50;15.35;;;;;;;9.41;67.87;96008.38;5057559;28;20111;-63
2022/04/22 08:43:01;;;;;;;25.75;15.38;;;;;;;9.45;67.66;96014.84;5049177;28;20055;-62
2022/04/22 08:45:28;;;;;;;22.23;13.40;;;;;;;9.43;67.27;96003.50;5072819;28;20103;-62
2022/04/22 08:50:42;;;;;;;21.90;14.82;;;;;;;9.61;66.82;95990.41;5073971;28;20047;-63
2022/04/22 08:53:14;;;;;;;23.17;15.65;;;;;;;9.68;66.68;95984.69;5052661;28;20252;-63
2022/04/22 08:55:43;;;;;;;19.48;13.35;;;;;;;9.76;65.55;95990.34;5064641;28;20059;-63
2022/04/22 08:58:10;;;;;;;21.60;12.95;;;;;;;9.82;66.06;95990.28;5053321;28;20059;-63
2022/04/22 09:00:37;;;;;;;25.77;15.95;;;;;;;9.81;65.77;95991.38;5064411;28;20090;-63
2022/04/22 09:03:04;;;;;;;22.20;15.27;;;;;;;9.81;65.97;95994.91;5052211;28;20528;-64
2022/04/22 09:05:34;;;;;;;20.75;13.73;;;;;;;9.87;65.71;95988.38;5060010;28;20052;-63
2022/04/22 09:08:02;;;;;;;20.23;13.48;;;;;;;9.93;65.14;95991.03;5053526;28;20116;-63
2022/04/22 09:10:28;;;;;;;19.73;13.10;;;;;;;10.11;64.46;95987.66;5051453;28;20052;-62
2022/04/22 09:12:57;;;;;;;19.67;12.95;;;;;;;10.13;65.25;95987.34;5056877;28;20040;-64
2022/04/22 09:15:26;;;;;;;20.20;14.07;;;;;;;10.17;65.05;95991.09;5047231;28;20538;-63
2022/04/22 09:17:57;;;;;;;21.27;13.82;;;;;;;10.17;64.75;95979.50;5054648;28;20063;-64
2022/04/22 09:20:29;;;;;;;21.13;13.80;;;;;;;10.34;64.67;95981.75;5050764;28;20040;-63
2022/04/22 09:22:58;;;;;;;22.02;13.98;;;;;;;10.31;64.81;95980.44;5061774;28;20110;-63
2022/04/22 09:25:25;;;;;;;20.67;13.68;;;;;;;10.27;64.97;95985.63;5055960;28;20047;-62
2022/04/22 09:28:05;;;;;;;19.15;13.05;;;;;;;10.35;64.32;95967.13;5058848;28;20044;-63
2022/04/22 09:30:35;;;;;;;20.40;14.70;;;;;;;10.59;64.16;95966.41;5046451;28;20131;-63
2022/04/22 09:33:02;;;;;;;20.48;14.02;;;;;;;10.60;62.79;95959.88;5061459;28;20048;-63
2022/04/22 09:35:29;;;;;;;19.08;12.73;;;;;;;10.68;63.42;95953.84;5046907;28;20449;-63
2022/04/22 09:43:39;;;;;;;19.77;13.75;;;;;;;11.04;61.30;95950.75;5052605;28;20048;-63
2022/04/22 09:46:30;;;;;;;21.88;13.63;;;;;;;11.14;61.18;95951.69;5053895;28;20037;-63
2022/04/22 09:48:58;;;;;;;21.85;13.23;;;;;;;11.17;60.58;95956.53;5073086;28;20431;-63
2022/04/22 09:51:30;;;;;;;17.83;12.27;;;;;;;11.40;59.80;95946.75;5052305;28;20041;-63
2022/04/22 09:54:09;;;;;;;17.33;12.13;;;;;;;11.75;59.81;95949.22;5058329;28;20053;-63
2022/04/22 09:56:38;;;;;;;20.23;12.82;;;;;;;11.89;59.48;95952.00;5044015;28;20041;-63
2022/04/22 09:59:25;;;;;;;19.48;13.93;;;;;;;11.79;58.53;95952.16;5045207;28;20800;-63
2022/04/22 10:01:52;;;;;;;19.73;13.77;;;;;;;11.63;58.69;95959.69;5059339;28;20093;-63
2022/04/22 10:04:32;;;;;;;15.98;11.73;;;;;;;11.81;58.46;95953.47;5051206;28;20047;-63
2022/04/22 10:07:02;;;;;;;15.95;10.88;;;;;;;12.15;57.97;95945.38;5051422;28;20052;-62
2022/04/22 10:09:29;;;;;;;19.48;12.25;;;;;;;12.09;58.93;95947.38;5047638;28;20065;-62
2022/04/22 10:11:58;;;;;;;17.27;11.65;;;;;;;12.09;57.50;95950.88;5057261;28;20527;-63
2022/04/22 10:14:37;;;;;;;17.90;12.38;;;;;;;11.87;57.87;95954.19;5049786;28;20040;-62
2022/04/22 10:17:05;;;;;;;18.30;12.27;;;;;;;12.17;56.98;95954.03;5043941;28;20052;-63
2022/04/22 10:19:33;;;;;;;17.10;13.13;;;;;;;12.18;57.37;95942.06;5044167;28;20132;-63
2022/04/22 10:22:02;;;;;;;18.20;12.10;;;;;;;12.30;57.10;95950.53;5050411;28;20056;-63
2022/04/22 10:24:31;;;;;;;16.33;11.07;;;;;;;12.32;56.40;95944.81;5044181;28;20416;-62
2022/04/22 10:27:03;;;;;;;17.65;12.63;;;;;;;12.41;57.23;95947.63;5061169;28;20074;-63
2022/04/22 10:29:52;;;;;;;16.58;12.27;;;;;;;12.67;56.44;95933.59;5044799;28;20041;-61
2022/04/22 10:32:19;;;;;;;18.85;12.05;;;;;;;12.56;56.76;95941.13;5054418;28;20141;-63
2022/04/22 10:34:45;;;;;;;17.83;13.20;;;;;;;12.64;56.18;95940.41;5058835;28;20632;-63
2022/04/22 10:37:19;;;;;;;19.48;13.50;;;;;;;12.66;56.13;95932.78;5067719;28;20124;-63
2022/04/22 10:39:53;;;;;;;17.00;12.10;;;;;;;13.07;54.90;95939.31;5052708;28;20037;-62
2022/04/22 10:42:37;;;;;;;18.35;12.68;;;;;;;13.12;54.56;95944.66;5061316;28;20162;-63
2022/04/22 10:47:51;;;;;;;15.82;11.43;;;;;;;13.48;53.72;95934.13;5063050;28;20768;-62
2022/04/22 10:50:42;;;;;;;17.10;11.38;;;;;;;13.55;53.01;95939.97;5063259;28;20045;-63
2022/04/22 10:53:23;;;;;;;17.30;12.32;;;;;;;13.36;53.20;95942.78;5063133;28;20067;-63
2022/04/22 10:55:50;;;;;;;15.65;11.75;;;;;;;13.30;53.50;95928.50;5051546;28;20500;-62
2022/04/22 10:58:36;;;;;;;19.35;12.43;;;;;;;13.15;54.68;95924.22;5052130;28;20389;-63
2022/04/22 11:01:03;;;;;;;17.30;12.20;;;;;;;13.28;54.46;95930.75;5047145;28;20558;-63
2022/04/22 11:03:34;;;;;;;16.35;11.60;;;;;;;13.49;53.93;95922.16;5051678;28;20056;-63
2022/04/22 11:06:02;;;;;;;17.83;12.77;;;;;;;13.40;53.64;95928.31;5055205;28;20056;-63
2022/04/22 11:08:32;;;;;;;16.92;11.95;;;;;;;13.72;53.00;95916.75;5062674;28;20450;-63
2022/04/22 11:11:03;;;;;;;16.67;11.80;;;;;;;13.74;53.75;95917.22;5063425;28;20102;-63
2022/04/22 11:13:41;;;;;;;21.80;13.57;;;;;;;14.00;52.63;95911.97;5043666;28;20048;-62
2022/04/22 11:16:12;;;;;;;17.38;11.98;;;;;;;13.67;53.29;95914.94;5057913;28;20070;-62
2022/04/22 11:18:41;;;;;;;20.20;13.23;;;;;;;13.53;54.28;95915.00;5055667;28;20068;-63
2022/04/22 11:21:33;;;;;;;20.40;13.75;;;;;;;13.87;53.80;95910.13;5042679;28;20479;-63
2022/04/22 11:24:01;;;;;;;17.00;12.20;;;;;;;14.36;52.17;95917.63;5051861;28;20071;-62
2022/04/22 11:26:29;;;;;;;14.68;11.30;;;;;;;14.25;51.97;95926.06;5057427;28;20063;-63
2022/04/22 11:28:58;;;;;;;18.02;12.55;;;;;;;14.22;51.99;95926.69;5049890;28;20070;-63
2022/04/22 11:31:29;;;;;;;16.60;12.35;;;;;;;14.58;52.23;95914.03;5049285;28;20045;-62
2022/04/22 11:33:58;;;;;;;17.35;12.25;;;;;;;14.79;50.15;95913.53;5063167;28;20040;-63
2022/04/22 11:36:25;;;;;;;15.80;11.90;;;;;;;14.99;50.24;95909.41;5050337;28;20045;-62
2022/04/22 11:38:54;;;;;;;16.02;12.10;;;;;;;14.65;51.10;95908.97;5051229;28;20459;-63
2022/04/22 11:41:22;;;;;;;24.20;12.38;;;;;;;14.72;50.02;95911.22;5048283;28;20041;-62
2022/04/22 11:43:48;;;;;;;15.73;12.00;;;;;;;14.62;51.10;95904.13;5043592;28;20424;-63
2022/04/22 11:46:17;;;;;;;16.42;12.02;;;;;;;14.78;49.68;95903.75;5053949;28;20535;-63
2022/04/22 11:48:53;;;;;;;16.80;11.68;;;;;;;14.58;51.33;95897.69;5067819;28;20044;-63
2022/04/22 11:51:20;;;;;;;15.82;11.35;;;;;;;14.15;51.93;95910.78;5052982;28;20333;-63
2022/04/22 11:53:52;;;;;;;17.20;12.82;;;;;;;14.30;51.72;95909.59;5063037;28;20059;-62
2022/04/22 11:56:20;;;;;;;;;;;;;;;13.97;52.69;95900.91;5045714;28;20145;-64
2022/04/22 11:58:52;;;;;;;20.75;12.98;;;;;;;14.43;51.08;95891.56;5041796;28;19924;-63
2022/04/22 12:06:57;;;;;;;14.80;11.10;;;;;;;15.08;48.96;95887.63;5042005;28;20543;-63
2022/04/22 12:09:23;;;;;;;14.73;11.18;;;;;;;15.54;47.14;95888.16;5051181;28;20080;-63
2022/04/22 12:11:51;;;;;;;16.08;11.77;;;;;;;16.11;46.69;95888.28;5058480;28;20128;-63
2022/04/22 12:14:25;;;;;;;17.25;12.88;;;;;;;16.03;46.93;95891.84;5060297;28;20784;-63
2022/04/22 12:16:58;;;;;;;15.18;11.65;;;;;;;16.09;46.57;95887.78;5045457;28;20041;-64
2022/04/22 12:19:26;;;;;;;16.27;11.68;;;;;;;15.83;47.81;95889.41;5054853;28;21127;-63
2022/04/22 12:21:54;;;;;;;17.08;11.93;;;;;;;15.38;47.76;95892.47;5050849;28;20053;-63
2022/04/22 12:24:23;;;;;;;16.52;11.88;;;;;;;15.88;46.72;95890.38;5059460;28;20082;-63
2022/04/22 12:26:54;;;;;;;15.43;11.38;;;;;;;15.90;46.75;95886.19;5047755;28;20049;-63
2022/04/22 12:29:27;;;;;;;17.63;12.05;;;;;;;16.09;46.85;95879.59;5058990;28;20045;-63